createdAt,value
2022-10-19T00:00:15.835Z,97358.94
2022-10-19T00:00:47.908Z,97352.13
2022-10-19T00:01:22.179Z,97356.25
2022-10-19T00:01:53.984Z,97349.13
2022-10-19T00:02:25.797Z,97350.69
2022-10-19T00:02:57.635Z,97348.69
2022-10-19T00:03:29.873Z,97346.78
2022-10-19T00:04:03.620Z,97351.50
2022-10-19T00:04:38.258Z,97344.56
2022-10-19T00:05:10.126Z,97342.22
2022-10-19T00:05:42.213Z,97351.19
2022-10-19T00:06:28.915Z,97348.72
2022-10-19T00:07:00.806Z,97351.06
2022-10-19T00:07:34.080Z,97350.88
2022-10-19T00:08:06.179Z,97346.63
2022-10-19T00:08:38.584Z,97351.38
2022-10-19T00:09:15.757Z,97345.34
2022-10-19T00:09:47.739Z,97345.53
2022-10-19T00:10:19.531Z,97347.94
2022-10-19T00:10:51.385Z,97349.38
2022-10-19T00:11:24.175Z,97349.06
2022-10-19T00:11:55.992Z,97345.63
2022-10-19T00:12:28.044Z,97351.88
2022-10-19T00:13:00.261Z,97345.75
2022-10-19T00:13:32.207Z,97355.22
2022-10-19T00:14:04.990Z,97352.56
2022-10-19T00:14:36.891Z,97350.50
2022-10-19T00:15:09.185Z,97354.31
2022-10-19T00:15:41.559Z,97352.41
2022-10-19T00:16:15.669Z,97347.84
2022-10-19T00:16:49.765Z,97347.84
2022-10-19T00:17:21.557Z,97343.91
2022-10-19T00:17:53.326Z,97340.94
2022-10-19T00:18:25.443Z,97346.91
2022-10-19T00:18:58.979Z,97351.16
2022-10-19T00:19:30.914Z,97341.72
2022-10-19T00:20:02.677Z,97343.00
2022-10-19T00:20:36.023Z,97341.75
2022-10-19T00:21:09.899Z,97347.75
2022-10-19T00:21:42.030Z,97343.00
2022-10-19T00:22:14.236Z,97340.47
2022-10-19T00:22:49.756Z,97345.56
2022-10-19T00:23:22.882Z,97344.75
2022-10-19T00:23:54.835Z,97347.91
2022-10-19T00:24:26.733Z,97341.44
2022-10-19T00:24:58.501Z,97344.59
2022-10-19T00:25:30.481Z,97345.06
2022-10-19T00:26:02.873Z,97344.59
2022-10-19T00:26:35.268Z,97342.22
2022-10-19T00:27:07.147Z,97345.69
2022-10-19T00:27:40.259Z,97355.16
2022-10-19T00:28:12.777Z,97351.69
2022-10-19T00:28:44.650Z,97350.25
2022-10-19T00:29:16.728Z,97353.72
2022-10-19T00:29:48.600Z,97347.25
2022-10-19T00:30:20.496Z,97353.88
2022-10-19T00:30:52.600Z,97354.78
2022-10-19T00:31:25.167Z,97352.59
2022-10-19T00:31:56.971Z,97353.06
2022-10-19T00:32:28.756Z,97358.84
2022-10-19T00:33:00.612Z,97349.25
2022-10-19T00:33:33.205Z,97349.06
2022-10-19T00:34:05.146Z,97350.31
2022-10-19T00:34:36.918Z,97348.91
2022-10-19T00:35:09.306Z,97351.88
2022-10-19T00:35:41.325Z,97350.81
2022-10-19T00:36:23.456Z,97345.91
2022-10-19T00:36:55.256Z,97349.81
2022-10-19T00:37:27.349Z,97353.13
2022-10-19T00:37:59.179Z,97347.28
2022-10-19T00:38:31.343Z,97347.16
2022-10-19T00:39:05.090Z,97352.97
2022-10-19T00:39:36.846Z,97352.44
2022-10-19T00:40:09.495Z,97342.97
2022-10-19T00:40:41.317Z,97350.50
2022-10-19T00:41:24.012Z,97351.63
2022-10-19T00:42:01.396Z,97349.94
2022-10-19T00:42:33.348Z,97345.50
2022-10-19T00:43:12.715Z,97349.56
2022-10-19T00:43:56.417Z,97345.16
2022-10-19T00:44:31.127Z,97349.06
2022-10-19T00:45:12.752Z,97345.31
2022-10-19T00:45:44.606Z,97348.75
2022-10-19T00:46:17.657Z,97349.69
2022-10-19T00:46:49.643Z,97353.16
2022-10-19T00:47:23.958Z,97351.25
2022-10-19T00:47:56.240Z,97342.44
2022-10-19T00:48:31.893Z,97348.41
2022-10-19T00:49:13.034Z,97345.28
2022-10-19T00:49:45.315Z,97350.84
2022-10-19T00:50:17.416Z,97342.44
2022-10-19T00:50:53.202Z,97340.19
2022-10-19T00:51:27.716Z,97344.97
2022-10-19T00:52:15.470Z,97340.84
2022-10-19T00:52:47.539Z,97341.16
2022-10-19T00:53:19.741Z,97342.72
2022-10-19T00:53:51.856Z,97341.97
2022-10-19T00:54:25.600Z,97339.91
2022-10-19T00:54:59.023Z,97338.31
2022-10-19T00:55:31.361Z,97341.63
2022-10-19T00:56:07.844Z,97344.63
2022-10-19T00:56:42.785Z,97338.63
2022-10-19T00:57:15.176Z,97348.44
2022-10-19T00:57:47.017Z,97335.63
2022-10-19T00:58:20.169Z,97337.03
2022-10-19T00:58:52.525Z,97339.72
2022-10-19T00:59:26.705Z,97340.66
2022-10-19T01:00:00.941Z,97332.59
2022-10-19T01:00:34.139Z,97327.88
2022-10-19T01:01:08.514Z,97337.03
2022-10-19T01:01:42.308Z,97329.25
2022-10-19T01:02:14.144Z,97335.94
2022-10-19T01:02:46.246Z,97332.47
2022-10-19T01:03:18.328Z,97328.16
2022-10-19T01:03:50.185Z,97333.31
2022-10-19T01:04:23.492Z,97329.06
2022-10-19T01:04:55.824Z,97337.09
2022-10-19T01:05:28.166Z,97332.84
2022-10-19T01:06:01.062Z,97334.69
2022-10-19T01:06:33.986Z,97332.13
2022-10-19T01:07:08.124Z,97327.44
2022-10-19T01:07:39.991Z,97329.31
2022-10-19T01:08:12.295Z,97338.16
2022-10-19T01:08:44.391Z,97325.72
2022-10-19T01:09:16.339Z,97329.72
2022-10-19T01:09:48.212Z,97332.09
2022-10-19T01:10:28.489Z,97333.03
2022-10-19T01:11:23.223Z,97334.41
2022-10-19T01:11:59.588Z,97326.31
2022-10-19T01:12:37.229Z,97332.47
2022-10-19T01:13:17.209Z,97336.53
2022-10-19T01:13:58.816Z,97327.25
2022-10-19T01:14:36.430Z,97329.56
2022-10-19T01:15:11.035Z,97328.59
2022-10-19T01:15:55.219Z,97327.69
2022-10-19T01:16:38.980Z,97330.81
2022-10-19T01:17:16.640Z,97322.91
2022-10-19T01:18:19.040Z,97323.13
2022-10-19T01:19:02.768Z,97331.63
2022-10-19T01:20:00.335Z,97329.13
2022-10-19T01:20:46.750Z,97330.81
2022-10-19T01:21:42.481Z,97336.97
2022-10-19T01:22:55.775Z,97334.28
2022-10-19T01:23:58.484Z,97331.63
2022-10-19T01:24:38.412Z,97335.84
2022-10-19T01:25:47.963Z,97330.78
2022-10-19T01:26:44.612Z,97328.28
2022-10-19T01:27:53.000Z,97328.31
2022-10-19T01:28:27.703Z,97331.69
2022-10-19T01:29:26.326Z,97327.88
2022-10-19T01:30:06.818Z,97331.00
2022-10-19T01:30:53.151Z,97334.28
2022-10-19T01:31:46.721Z,97333.31
2022-10-19T01:32:35.678Z,97331.09
2022-10-19T01:33:14.799Z,97339.53
2022-10-19T01:34:04.929Z,97335.00
2022-10-19T01:34:39.525Z,97335.81
2022-10-19T01:35:25.396Z,97335.94
2022-10-19T01:35:57.130Z,97340.19
2022-10-19T01:36:52.850Z,97332.94
2022-10-19T01:37:38.043Z,97331.69
2022-10-19T01:38:24.834Z,97337.81
2022-10-19T01:39:08.080Z,97337.94
2022-10-19T01:39:49.813Z,97331.59
2022-10-19T01:40:28.562Z,97338.41
2022-10-19T01:41:28.634Z,97330.56
2022-10-19T01:42:10.806Z,97335.84
2022-10-19T01:42:46.377Z,97330.16
2022-10-19T01:43:33.864Z,97325.91
2022-10-19T01:44:13.032Z,97325.44
2022-10-19T01:44:55.599Z,97333.75
2022-10-19T01:45:41.618Z,97333.56
2022-10-19T01:46:37.100Z,97325.50
2022-10-19T01:47:16.709Z,97329.31
2022-10-19T01:47:55.536Z,97326.47
2022-10-19T01:48:32.413Z,97328.63
2022-10-19T01:49:18.157Z,97328.63
2022-10-19T01:49:57.099Z,97323.94
2022-10-19T01:50:36.177Z,97320.78
2022-10-19T01:51:20.700Z,97323.94
2022-10-19T01:52:37.982Z,97329.94
2022-10-19T01:53:12.473Z,97323.34
2022-10-19T01:53:50.388Z,97322.50
2022-10-19T01:54:24.071Z,97325.03
2022-10-19T01:54:59.208Z,97323.59
2022-10-19T01:55:32.550Z,97322.59
2022-10-19T01:56:06.299Z,97325.88
2022-10-19T01:56:42.242Z,97325.09
2022-10-19T01:57:18.547Z,97320.50
2022-10-19T01:58:11.051Z,97323.72
2022-10-19T01:58:46.096Z,97327.06
2022-10-19T01:59:21.117Z,97329.97
2022-10-19T01:59:54.919Z,97330.88
2022-10-19T02:00:28.321Z,97332.44
2022-10-19T02:01:05.263Z,97331.25
2022-10-19T02:01:41.441Z,97330.88
2022-10-19T02:02:14.497Z,97326.66
2022-10-19T02:02:50.286Z,97324.22
2022-10-19T02:03:25.217Z,97324.88
2022-10-19T02:03:58.643Z,97329.91
2022-10-19T02:04:31.810Z,97321.75
2022-10-19T02:05:05.888Z,97324.22
2022-10-19T02:05:39.943Z,97319.94
2022-10-19T02:06:13.871Z,97319.06
2022-10-19T02:06:46.092Z,97321.38
2022-10-19T02:07:21.669Z,97328.91
2022-10-19T02:07:59.102Z,97325.19
2022-10-19T02:08:40.376Z,97319.72
2022-10-19T02:09:18.138Z,97329.53
2022-10-19T02:09:50.343Z,97328.75
2022-10-19T02:10:23.161Z,97328.00
2022-10-19T02:10:56.496Z,97325.78
2022-10-19T02:11:29.911Z,97326.44
2022-10-19T02:12:06.325Z,97323.53
2022-10-19T02:12:38.959Z,97326.22
2022-10-19T02:13:13.912Z,97323.78
2022-10-19T02:13:51.145Z,97327.25
2022-10-19T02:14:29.321Z,97328.25
2022-10-19T02:15:06.062Z,97324.13
2022-10-19T02:15:41.485Z,97327.78
2022-10-19T02:16:18.602Z,97321.75
2022-10-19T02:16:57.394Z,97325.03
2022-10-19T02:17:34.462Z,97328.47
2022-10-19T02:18:08.405Z,97328.84
2022-10-19T02:18:49.021Z,97319.34
2022-10-19T02:20:00.484Z,97327.38
2022-10-19T02:20:35.517Z,97330.50
2022-10-19T02:21:09.357Z,97321.09
2022-10-19T02:21:41.250Z,97327.50
2022-10-19T02:22:13.634Z,97318.22
2022-10-19T02:22:45.600Z,97321.75
2022-10-19T02:23:21.967Z,97318.97
2022-10-19T02:23:54.322Z,97322.91
2022-10-19T02:24:26.254Z,97319.22
2022-10-19T02:24:58.375Z,97319.78
2022-10-19T02:25:30.536Z,97326.50
2022-10-19T02:26:03.270Z,97314.50
2022-10-19T02:26:36.392Z,97324.22
2022-10-19T02:27:09.011Z,97319.19
2022-10-19T02:27:44.172Z,97320.31
2022-10-19T02:28:16.251Z,97321.88
2022-10-19T02:28:49.027Z,97319.56
2022-10-19T02:29:20.973Z,97320.34
2022-10-19T02:29:53.810Z,97318.53
2022-10-19T02:30:25.860Z,97322.34
2022-10-19T02:30:58.674Z,97317.03
2022-10-19T02:31:30.492Z,97320.97
2022-10-19T02:32:02.534Z,97315.75
2022-10-19T02:32:35.901Z,97321.53
2022-10-19T02:33:08.289Z,97313.50
2022-10-19T02:33:40.350Z,97326.50
2022-10-19T02:34:13.089Z,97315.09
2022-10-19T02:34:45.206Z,97315.09
2022-10-19T02:35:17.435Z,97309.03
2022-10-19T02:35:49.425Z,97312.84
2022-10-19T02:36:23.412Z,97309.13
2022-10-19T02:36:55.716Z,97311.81
2022-10-19T02:37:27.824Z,97316.88
2022-10-19T02:38:02.227Z,97319.56
2022-10-19T02:38:34.348Z,97312.50
2022-10-19T02:39:07.840Z,97306.22
2022-10-19T02:39:40.385Z,97305.22
2022-10-19T02:40:12.629Z,97308.81
2022-10-19T02:40:52.068Z,97311.72
2022-10-19T02:41:37.038Z,97312.03
2022-10-19T02:42:11.793Z,97304.44
2022-10-19T02:42:50.217Z,97304.78
2022-10-19T02:43:24.986Z,97305.56
2022-10-19T02:44:05.546Z,97309.69
2022-10-19T02:44:41.713Z,97309.56
2022-10-19T02:45:22.441Z,97304.31
2022-10-19T02:46:01.808Z,97305.75
2022-10-19T02:46:44.272Z,97309.47
2022-10-19T02:47:24.893Z,97305.69
2022-10-19T02:48:07.472Z,97304.56
2022-10-19T02:48:41.234Z,97304.34
2022-10-19T02:49:13.773Z,97305.34
2022-10-19T02:49:47.151Z,97307.25
2022-10-19T02:50:20.355Z,97306.91
2022-10-19T02:50:52.252Z,97306.13
2022-10-19T02:51:28.560Z,97306.22
2022-10-19T02:52:09.132Z,97300.06
2022-10-19T02:52:41.759Z,97308.69
2022-10-19T02:53:14.281Z,97298.28
2022-10-19T02:53:46.295Z,97299.09
2022-10-19T02:54:18.466Z,97300.53
2022-10-19T02:54:50.272Z,97298.28
2022-10-19T02:55:22.137Z,97297.63
2022-10-19T02:55:53.970Z,97298.63
2022-10-19T02:56:25.745Z,97293.56
2022-10-19T02:56:57.618Z,97297.84
2022-10-19T02:57:29.407Z,97301.41
2022-10-19T02:58:01.286Z,97294.03
2022-10-19T02:58:33.100Z,97292.47
2022-10-19T02:59:04.977Z,97289.44
2022-10-19T02:59:36.785Z,97289.91
2022-10-19T03:00:09.738Z,97290.88
2022-10-19T03:00:42.029Z,97291.03
2022-10-19T03:01:14.655Z,97289.56
2022-10-19T03:01:46.594Z,97285.78
2022-10-19T03:02:19.792Z,97299.31
2022-10-19T03:02:51.676Z,97287.09
2022-10-19T03:03:23.464Z,97282.88
2022-10-19T03:03:55.347Z,97280.41
2022-10-19T03:04:27.193Z,97286.53
2022-10-19T03:04:59.064Z,97281.06
2022-10-19T03:05:31.001Z,97276.16
2022-10-19T03:06:02.906Z,97287.44
2022-10-19T03:06:34.705Z,97289.78
2022-10-19T03:07:06.548Z,97287.22
2022-10-19T03:07:38.551Z,97282.88
2022-10-19T03:08:10.342Z,97281.31
2022-10-19T03:08:42.381Z,97278.47
2022-10-19T03:09:14.460Z,97278.63
2022-10-19T03:09:46.465Z,97281.75
2022-10-19T03:10:18.308Z,97275.47
2022-10-19T03:10:50.152Z,97279.84
2022-10-19T03:11:21.983Z,97274.16
2022-10-19T03:11:55.826Z,97269.53
2022-10-19T03:12:27.781Z,97271.47
2022-10-19T03:12:59.626Z,97271.56
2022-10-19T03:13:31.492Z,97267.31
2022-10-19T03:14:03.389Z,97266.31
2022-10-19T03:14:35.201Z,97269.88
2022-10-19T03:15:07.655Z,97271.00
2022-10-19T03:15:39.398Z,97271.59
2022-10-19T03:16:13.147Z,97270.13
2022-10-19T03:16:45.042Z,97266.34
2022-10-19T03:17:17.283Z,97264.75
2022-10-19T03:17:52.831Z,97267.78
2022-10-19T03:18:24.625Z,97262.16
2022-10-19T03:18:56.458Z,97265.19
2022-10-19T03:19:28.315Z,97267.66
2022-10-19T03:20:00.176Z,97270.88
2022-10-19T03:20:32.040Z,97270.78
2022-10-19T03:21:10.312Z,97266.84
2022-10-19T03:21:42.196Z,97271.56
2022-10-19T03:22:14.930Z,97266.84
2022-10-19T03:22:46.865Z,97271.47
2022-10-19T03:23:18.687Z,97263.03
2022-10-19T03:23:50.550Z,97267.66
2022-10-19T03:24:22.416Z,97261.25
2022-10-19T03:24:54.229Z,97265.31
2022-10-19T03:25:26.101Z,97267.34
2022-10-19T03:25:58.283Z,97267.44
2022-10-19T03:26:30.227Z,97270.34
2022-10-19T03:27:02.396Z,97262.97
2022-10-19T03:27:34.401Z,97274.03
2022-10-19T03:28:06.511Z,97266.31
2022-10-19T03:28:38.326Z,97268.78
2022-10-19T03:29:10.201Z,97269.44
2022-10-19T03:29:42.048Z,97271.56
2022-10-19T03:30:13.912Z,97266.31
2022-10-19T03:30:45.737Z,97272.13
2022-10-19T03:31:17.632Z,97268.56
2022-10-19T03:31:49.436Z,97265.44
2022-10-19T03:32:21.437Z,97263.44
2022-10-19T03:32:53.208Z,97269.09
2022-10-19T03:34:02.815Z,97269.22
2022-10-19T03:34:34.707Z,97270.81
2022-10-19T03:35:07.127Z,97263.09
2022-10-19T03:35:39.048Z,97267.78
2022-10-19T03:36:27.185Z,97266.22
2022-10-19T03:36:59.312Z,97263.44
2022-10-19T03:37:31.546Z,97259.59
2022-10-19T03:38:03.583Z,97255.47
2022-10-19T03:38:35.404Z,97258.94
2022-10-19T03:39:11.636Z,97262.75
2022-10-19T03:39:43.726Z,97256.25
2022-10-19T03:40:15.634Z,97249.09
2022-10-19T03:40:47.531Z,97255.38
2022-10-19T03:41:20.956Z,97253.69
2022-10-19T03:41:52.795Z,97262.06
2022-10-19T03:42:24.568Z,97258.25
2022-10-19T03:42:56.357Z,97259.94
2022-10-19T03:43:28.317Z,97254.91
2022-10-19T03:44:36.935Z,97254.56
2022-10-19T03:45:08.928Z,97257.81
2022-10-19T03:45:40.710Z,97261.38
2022-10-19T03:46:12.585Z,97258.38
2022-10-19T03:46:44.366Z,97258.13
2022-10-19T03:47:17.781Z,97262.16
2022-10-19T03:47:52.657Z,97261.97
2022-10-19T03:48:24.528Z,97257.59
2022-10-19T03:48:56.404Z,97266.09
2022-10-19T03:49:28.357Z,97263.63
2022-10-19T03:50:00.323Z,97261.97
2022-10-19T03:50:32.118Z,97261.38
2022-10-19T03:51:06.929Z,97256.94
2022-10-19T03:51:38.791Z,97258.56
2022-10-19T03:52:10.679Z,97260.28
2022-10-19T03:52:43.147Z,97261.72
2022-10-19T03:53:15.113Z,97263.72
2022-10-19T03:53:46.976Z,97256.69
2022-10-19T03:54:19.935Z,97263.19
2022-10-19T03:54:54.241Z,97255.47
2022-10-19T03:55:26.098Z,97254.91
2022-10-19T03:56:05.851Z,97261.53
2022-10-19T03:56:37.699Z,97256.25
2022-10-19T03:57:10.384Z,97260.28
2022-10-19T03:57:42.246Z,97255.59
2022-10-19T03:58:14.038Z,97252.78
2022-10-19T03:58:47.591Z,97253.56
2022-10-19T03:59:19.547Z,97256.03
2022-10-19T03:59:51.779Z,97256.03
2022-10-19T04:00:23.685Z,97262.75
2022-10-19T04:00:55.522Z,97258.47
2022-10-19T04:01:33.145Z,97258.47
2022-10-19T04:02:05.158Z,97259.72
2022-10-19T04:02:37.003Z,97257.03
2022-10-19T04:03:09.062Z,97255.56
2022-10-19T04:03:41.041Z,97261.97
2022-10-19T04:04:17.000Z,97266.09
2022-10-19T04:04:48.841Z,97246.75
2022-10-19T04:05:20.665Z,97258.16
2022-10-19T04:05:52.894Z,97250.09
2022-10-19T04:06:36.036Z,97255.59
2022-10-19T04:07:07.824Z,97256.16
2022-10-19T04:07:39.730Z,97253.69
2022-10-19T04:08:11.685Z,97257.81
2022-10-19T04:08:44.409Z,97255.03
2022-10-19T04:09:19.033Z,97246.41
2022-10-19T04:09:50.868Z,97249.75
2022-10-19T04:10:22.697Z,97251.31
2022-10-19T04:11:05.853Z,97253.25
2022-10-19T04:11:38.348Z,97251.78
2022-10-19T04:12:10.152Z,97245.63
2022-10-19T04:12:41.891Z,97248.78
2022-10-19T04:13:13.736Z,97245.28
2022-10-19T04:13:49.294Z,97252.56
2022-10-19T04:14:31.836Z,97247.75
2022-10-19T04:15:05.754Z,97249.44
2022-10-19T04:15:37.580Z,97248.88
2022-10-19T04:16:13.516Z,97250.66
2022-10-19T04:16:45.342Z,97244.63
2022-10-19T04:17:17.165Z,97248.78
2022-10-19T04:17:48.924Z,97243.03
2022-10-19T04:18:20.753Z,97247.31
2022-10-19T04:18:52.585Z,97252.69
2022-10-19T04:19:24.427Z,97243.50
2022-10-19T04:19:56.314Z,97247.19
2022-10-19T04:20:28.127Z,97243.25
2022-10-19T04:21:04.930Z,97247.88
2022-10-19T04:21:38.426Z,97246.84
2022-10-19T04:22:10.701Z,97241.94
2022-10-19T04:22:42.509Z,97243.94
2022-10-19T04:23:14.354Z,97245.72
2022-10-19T04:23:46.284Z,97251.00
2022-10-19T04:24:19.235Z,97244.97
2022-10-19T04:24:51.071Z,97253.56
2022-10-19T04:25:22.915Z,97252.00
2022-10-19T04:26:02.858Z,97243.03
2022-10-19T04:26:40.375Z,97249.53
2022-10-19T04:27:12.170Z,97241.94
2022-10-19T04:27:43.937Z,97243.03
2022-10-19T04:28:16.059Z,97245.94
2022-10-19T04:28:47.925Z,97247.06
2022-10-19T04:29:23.724Z,97258.94
2022-10-19T04:29:58.290Z,97255.72
2022-10-19T04:30:30.078Z,97254.81
2022-10-19T04:31:03.392Z,97250.75
2022-10-19T04:31:35.450Z,97248.31
2022-10-19T04:32:07.295Z,97250.63
2022-10-19T04:32:39.184Z,97254.03
2022-10-19T04:33:11.098Z,97248.75
2022-10-19T04:33:43.228Z,97246.16
2022-10-19T04:34:15.232Z,97250.63
2022-10-19T04:34:47.141Z,97246.94
2022-10-19T04:35:19.133Z,97252.00
2022-10-19T04:35:51.127Z,97249.53
2022-10-19T04:36:23.622Z,97251.66
2022-10-19T04:36:55.655Z,97252.22
2022-10-19T04:37:27.535Z,97248.78
2022-10-19T04:37:59.776Z,97252.00
2022-10-19T04:38:32.481Z,97246.19
2022-10-19T04:39:05.542Z,97249.78
2022-10-19T04:39:41.004Z,97244.16
2022-10-19T04:40:14.998Z,97241.34
2022-10-19T04:40:47.388Z,97246.38
2022-10-19T04:41:21.621Z,97241.69
2022-10-19T04:41:53.549Z,97246.84
2022-10-19T04:42:25.527Z,97245.41
2022-10-19T04:42:57.900Z,97237.34
2022-10-19T04:43:29.878Z,97239.47
2022-10-19T04:44:03.998Z,97238.44
2022-10-19T04:44:36.461Z,97237.88
2022-10-19T04:45:08.771Z,97241.47
2022-10-19T04:45:40.812Z,97241.34
2022-10-19T04:46:15.550Z,97241.34
2022-10-19T04:46:47.464Z,97246.63
2022-10-19T04:47:19.818Z,97242.94
2022-10-19T04:47:51.756Z,97243.72
2022-10-19T04:48:23.696Z,97247.53
2022-10-19T04:48:56.596Z,97243.94
2022-10-19T04:49:28.557Z,97244.50
2022-10-19T04:50:00.577Z,97239.47
2022-10-19T04:50:33.694Z,97245.06
2022-10-19T04:51:06.332Z,97241.72
2022-10-19T04:51:38.349Z,97234.41
2022-10-19T04:52:10.235Z,97239.78
2022-10-19T04:52:45.232Z,97237.91
2022-10-19T04:53:17.846Z,97242.81
2022-10-19T04:53:50.949Z,97235.88
2022-10-19T04:54:23.503Z,97241.47
2022-10-19T04:54:55.288Z,97237.56
2022-10-19T04:55:27.214Z,97239.78
2022-10-19T04:55:59.367Z,97239.00
2022-10-19T04:56:32.337Z,97235.19
2022-10-19T04:57:04.519Z,97232.94
2022-10-19T04:57:36.686Z,97231.91
2022-10-19T04:58:08.839Z,97235.06
2022-10-19T04:58:40.757Z,97230.38
2022-10-19T04:59:12.752Z,97228.91
2022-10-19T04:59:47.349Z,97229.47
2022-10-19T05:00:19.290Z,97229.56
2022-10-19T05:00:51.179Z,97230.50
2022-10-19T05:01:24.013Z,97231.50
2022-10-19T05:01:55.768Z,97237.00
2022-10-19T05:02:27.565Z,97235.63
2022-10-19T05:02:59.359Z,97235.31
2022-10-19T05:03:31.217Z,97236.41
2022-10-19T05:04:03.876Z,97233.06
2022-10-19T05:04:35.672Z,97236.31
2022-10-19T05:05:07.992Z,97233.84
2022-10-19T05:05:40.047Z,97233.66
2022-10-19T05:06:13.055Z,97233.19
2022-10-19T05:06:44.821Z,97236.66
2022-10-19T05:07:17.627Z,97233.97
2022-10-19T05:07:49.530Z,97240.91
2022-10-19T05:08:21.365Z,97234.66
2022-10-19T05:08:53.565Z,97232.53
2022-10-19T05:09:25.447Z,97228.03
2022-10-19T05:09:57.249Z,97230.03
2022-10-19T05:10:29.226Z,97231.41
2022-10-19T05:11:10.275Z,97233.41
2022-10-19T05:11:42.119Z,97229.28
2022-10-19T05:12:13.864Z,97232.84
2022-10-19T05:12:45.663Z,97227.94
2022-10-19T05:13:17.603Z,97231.72
2022-10-19T05:13:50.175Z,97237.91
2022-10-19T05:14:22.150Z,97226.81
2022-10-19T05:14:53.978Z,97232.75
2022-10-19T05:15:25.781Z,97229.38
2022-10-19T05:15:59.647Z,97228.59
2022-10-19T05:16:31.405Z,97228.81
2022-10-19T05:17:03.208Z,97232.41
2022-10-19T05:17:35.405Z,97231.41
2022-10-19T05:18:07.404Z,97227.91
2022-10-19T05:18:40.283Z,97222.44
2022-10-19T05:19:14.063Z,97225.56
2022-10-19T05:19:45.890Z,97221.97
2022-10-19T05:20:17.717Z,97222.22
2022-10-19T05:20:49.511Z,97220.09
2022-10-19T05:21:21.876Z,97226.13
2022-10-19T05:21:53.670Z,97218.63
2022-10-19T05:22:25.534Z,97226.69
2022-10-19T05:22:57.335Z,97227.72
2022-10-19T05:23:29.787Z,97223.69
2022-10-19T05:24:01.611Z,97238.13
2022-10-19T05:24:33.400Z,97225.03
2022-10-19T05:25:06.576Z,97231.44
2022-10-19T05:25:38.498Z,97229.16
2022-10-19T05:26:17.501Z,97228.38
2022-10-19T05:26:49.460Z,97232.75
2022-10-19T05:27:22.205Z,97229.59
2022-10-19T05:27:54.034Z,97229.59
2022-10-19T05:28:25.931Z,97226.81
2022-10-19T05:29:12.793Z,97228.56
2022-10-19T05:29:45.679Z,97221.88
2022-10-19T05:30:17.543Z,97230.38
2022-10-19T05:30:49.315Z,97231.72
2022-10-19T05:31:21.215Z,97231.81
2022-10-19T05:31:53.140Z,97224.88
2022-10-19T05:32:24.959Z,97237.19
2022-10-19T05:32:56.858Z,97227.81
2022-10-19T05:33:28.784Z,97230.25
2022-10-19T05:34:04.042Z,97236.41
2022-10-19T05:34:36.093Z,97227.56
2022-10-19T05:35:08.399Z,97229.94
2022-10-19T05:35:40.292Z,97230.69
2022-10-19T05:36:26.134Z,97225.78
2022-10-19T05:36:59.247Z,97231.03
2022-10-19T05:37:31.275Z,97228.81
2022-10-19T05:38:03.356Z,97227.25
2022-10-19T05:38:35.205Z,97225.22
2022-10-19T05:39:17.904Z,97232.25
2022-10-19T05:39:49.814Z,97226.78
2022-10-19T05:40:21.552Z,97229.56
2022-10-19T05:40:53.736Z,97231.16
2022-10-19T05:41:26.436Z,97229.38
2022-10-19T05:41:58.228Z,97230.84
2022-10-19T05:42:29.997Z,97241.00
2022-10-19T05:43:01.775Z,97234.19
2022-10-19T05:43:35.291Z,97235.19
2022-10-19T05:44:07.279Z,97228.47
2022-10-19T05:45:15.894Z,97227.56
2022-10-19T05:45:47.707Z,97225.56
2022-10-19T05:46:19.741Z,97238.00
2022-10-19T05:46:52.259Z,97224.19
2022-10-19T05:47:27.324Z,97222.63
2022-10-19T05:48:02.101Z,97221.28
2022-10-19T05:48:34.997Z,97223.19
2022-10-19T05:49:06.866Z,97218.16
2022-10-19T05:49:38.674Z,97221.06
2022-10-19T05:50:10.531Z,97219.94
2022-10-19T05:50:53.191Z,97221.88
2022-10-19T05:51:26.774Z,97213.34
2022-10-19T05:51:58.630Z,97221.75
2022-10-19T05:52:30.528Z,97220.63
2022-10-19T05:53:02.349Z,97219.19
2022-10-19T05:53:35.399Z,97223.31
2022-10-19T05:54:08.408Z,97223.09
2022-10-19T05:54:40.265Z,97218.38
2022-10-19T05:55:12.099Z,97224.31
2022-10-19T05:55:44.348Z,97220.59
2022-10-19T05:56:21.547Z,97225.78
2022-10-19T05:56:53.411Z,97217.25
2022-10-19T05:57:25.791Z,97224.88
2022-10-19T05:57:57.650Z,97223.78
2022-10-19T05:58:30.112Z,97231.41
2022-10-19T05:59:05.448Z,97235.63
2022-10-19T05:59:37.237Z,97235.53
2022-10-19T06:00:09.894Z,97230.03
2022-10-19T06:00:43.770Z,97227.13
2022-10-19T06:01:16.534Z,97230.03
2022-10-19T06:01:48.673Z,97229.13
2022-10-19T06:02:20.470Z,97232.72
2022-10-19T06:02:54.677Z,97230.13
2022-10-19T06:03:31.110Z,97235.53
2022-10-19T06:04:04.144Z,97233.50
2022-10-19T06:04:36.090Z,97231.63
2022-10-19T06:05:09.063Z,97239.88
2022-10-19T06:05:41.510Z,97237.19
2022-10-19T06:06:13.585Z,97236.22
2022-10-19T06:06:45.925Z,97236.22
2022-10-19T06:07:17.781Z,97236.41
2022-10-19T06:07:49.616Z,97239.88
2022-10-19T06:08:22.908Z,97231.81
2022-10-19T06:08:56.189Z,97234.19
2022-10-19T06:09:28.061Z,97232.50
2022-10-19T06:09:59.967Z,97239.47
2022-10-19T06:10:31.780Z,97243.38
2022-10-19T06:11:12.332Z,97236.53
2022-10-19T06:11:44.160Z,97236.63
2022-10-19T06:12:20.444Z,97240.13
2022-10-19T06:12:54.622Z,97232.94
2022-10-19T06:13:26.402Z,97237.88
2022-10-19T06:13:59.789Z,97236.75
2022-10-19T06:14:31.583Z,97232.28
2022-10-19T06:15:03.815Z,97234.66
2022-10-19T06:15:36.558Z,97239.47
2022-10-19T06:16:10.150Z,97239.56
2022-10-19T06:16:43.012Z,97240.44
2022-10-19T06:17:14.795Z,97240.78
2022-10-19T06:17:46.538Z,97235.50
2022-10-19T06:18:18.499Z,97241.44
2022-10-19T06:18:50.558Z,97230.91
2022-10-19T06:19:22.354Z,97244.00
2022-10-19T06:19:54.200Z,97239.56
2022-10-19T06:20:29.157Z,97234.28
2022-10-19T06:21:03.941Z,97235.75
2022-10-19T06:21:35.926Z,97245.81
2022-10-19T06:22:07.934Z,97240.97
2022-10-19T06:22:39.726Z,97240.31
2022-10-19T06:24:21.160Z,97243.22
2022-10-19T06:24:53.039Z,97238.44
2022-10-19T06:25:24.908Z,97237.63
2022-10-19T06:25:56.801Z,97244.69
2022-10-19T06:26:31.386Z,97229.81
2022-10-19T06:27:03.219Z,97239.22
2022-10-19T06:27:35.335Z,97244.03
2022-10-19T06:28:07.667Z,97245.69
2022-10-19T06:28:42.463Z,97246.91
2022-10-19T06:29:14.364Z,97246.50
2022-10-19T06:29:46.248Z,97251.97
2022-10-19T06:30:20.591Z,97245.38
2022-10-19T06:30:52.781Z,97248.03
2022-10-19T06:31:24.695Z,97244.69
2022-10-19T06:31:56.534Z,97247.47
2022-10-19T06:32:28.622Z,97242.91
2022-10-19T06:33:00.634Z,97244.22
2022-10-19T06:33:32.587Z,97246.16
2022-10-19T06:34:04.824Z,97240.88
2022-10-19T06:34:36.698Z,97245.69
2022-10-19T06:35:08.772Z,97245.72
2022-10-19T06:35:42.984Z,97241.69
2022-10-19T06:36:18.368Z,97242.25
2022-10-19T06:36:50.176Z,97242.25
2022-10-19T06:37:22.468Z,97242.66
2022-10-19T06:37:56.778Z,97240.22
2022-10-19T06:38:28.669Z,97244.88
2022-10-19T06:39:01.941Z,97246.34
2022-10-19T06:39:33.867Z,97241.44
2022-10-19T06:40:07.234Z,97252.84
2022-10-19T06:40:39.879Z,97246.03
2022-10-19T06:41:12.525Z,97244.94
2022-10-19T06:41:44.389Z,97244.94
2022-10-19T06:42:25.289Z,97248.84
2022-10-19T06:42:57.248Z,97247.16
2022-10-19T06:43:29.126Z,97254.22
2022-10-19T06:44:01.834Z,97240.31
2022-10-19T06:44:33.546Z,97245.03
2022-10-19T06:45:09.831Z,97235.84
2022-10-19T06:45:41.790Z,97241.00
2022-10-19T06:46:17.547Z,97243.22